Time;durP1;ratioP1;P1;durP2;ratioP2;P2;SDS_P1;SDS_P2;PMS_P1;PMS_P2;Temp;Humidity;BMP_temperature;BMP_pressure;BME280_temperature;BME280_humidity;BME280_pressure;Samples;Min_cycle;Max_cycle;Signal;HPM_P1;HPM_P2
2020/12/12 00:02:14;;;;;;;43.95;30.00;;;6.80;95.70;;;;;;5063829;28;20036;-76
2020/12/12 00:04:39;;;;;;;43.45;30.38;;;6.80;95.70;;;;;;5063364;28;20047;-73
2020/12/12 00:07:05;;;;;;;44.58;30.55;;;6.80;95.70;;;;;;5060279;28;20119;-73
2020/12/12 00:09:31;;;;;;;44.20;26.77;;;6.80;95.70;;;;;;5061623;28;20036;-75
2020/12/12 00:11:56;;;;;;;41.10;29.30;;;6.70;95.70;;;;;;5058269;28;20131;-73
2020/12/12 00:14:22;;;;;;;38.95;27.35;;;6.70;95.70;;;;;;5059893;28;20028;-74
2020/12/12 00:16:51;;;;;;;43.97;27.85;;;6.70;95.70;;;;;;5062447;28;20064;-73
2020/12/12 00:19:17;;;;;;;39.58;26.52;;;6.70;95.70;;;;;;5061537;28;20078;-73
2020/12/12 00:21:43;;;;;;;40.05;28.75;;;6.70;95.70;;;;;;5058844;28;20033;-73
2020/12/12 00:24:08;;;;;;;51.70;29.90;;;6.70;95.80;;;;;;5057917;28;20059;-73
2020/12/12 00:26:34;;;;;;;37.47;26.70;;;6.80;95.80;;;;;;5064447;28;20097;-74
2020/12/12 00:28:59;;;;;;;46.40;28.85;;;6.80;95.80;;;;;;5063890;28;20035;-77
2020/12/12 00:31:25;;;;;;;39.30;26.10;;;6.80;95.80;;;;;;5060006;28;21590;-75
2020/12/12 00:33:51;;;;;;;50.95;26.30;;;6.70;95.80;;;;;;5062261;28;20024;-74
2020/12/12 00:36:16;;;;;;;38.00;25.27;;;6.80;95.80;;;;;;5060972;28;20067;-73
2020/12/12 00:38:42;;;;;;;45.55;26.60;;;6.80;95.90;;;;;;5061113;28;20031;-74
2020/12/12 00:41:08;;;;;;;40.03;25.13;;;6.90;95.90;;;;;;5056795;28;20547;-75
2020/12/12 00:43:34;;;;;;;41.95;24.88;;;7.00;95.90;;;;;;5063119;28;20104;-74
2020/12/12 00:46:01;;;;;;;49.88;25.83;;;7.00;95.90;;;;;;5062347;28;20028;-73
2020/12/12 00:48:27;;;;;;;43.95;26.08;;;7.00;95.90;;;;;;5065626;28;20033;-74
2020/12/12 00:50:53;;;;;;;49.05;24.70;;;7.10;95.90;;;;;;5064223;28;20032;-73
2020/12/12 00:53:18;;;;;;;41.88;22.58;;;7.10;95.90;;;;;;5065328;28;20098;-73
2020/12/12 00:55:44;;;;;;;40.05;22.85;;;7.10;95.90;;;;;;5061837;28;20085;-76
2020/12/12 00:58:10;;;;;;;39.13;22.75;;;7.10;95.90;;;;;;5059698;28;20480;-75
2020/12/12 01:00:35;;;;;;;42.53;22.83;;;7.10;95.90;;;;;;5062125;28;20119;-74
2020/12/12 01:03:02;;;;;;;39.30;21.27;;;7.20;95.90;;;;;;5060428;28;20028;-74
2020/12/12 01:05:28;;;;;;;43.03;22.17;;;7.20;95.90;;;;;;5061622;28;20045;-74
2020/12/12 01:07:54;;;;;;;45.28;24.02;;;7.20;95.90;;;;;;5065110;28;20032;-73
2020/12/12 01:10:19;;;;;;;38.97;22.15;;;7.20;95.90;;;;;;5062226;28;20503;-74
2020/12/12 01:12:45;;;;;;;36.78;20.88;;;7.20;95.90;;;;;;5064936;28;20039;-73
2020/12/12 01:15:11;;;;;;;40.08;21.50;;;7.20;95.90;;;;;;5062237;28;20029;-74
2020/12/12 01:17:36;;;;;;;40.70;22.33;;;7.20;95.90;;;;;;5059789;28;20158;-73
2020/12/12 01:20:04;;;;;;;43.30;22.73;;;7.20;95.90;;;;;;5063701;28;20036;-74
2020/12/12 01:22:29;;;;;;;39.38;20.33;;;7.30;95.90;;;;;;5061540;28;20045;-74
2020/12/12 01:24:55;;;;;;;38.38;20.80;;;7.30;95.90;;;;;;5062453;28;20043;-78
2020/12/12 01:27:20;;;;;;;39.53;19.45;;;7.30;95.90;;;;;;5068645;28;20109;-73
2020/12/12 01:29:46;;;;;;;36.50;17.92;;;7.40;95.90;;;;;;5067781;28;20032;-74
2020/12/12 01:32:14;;;;;;;39.63;19.08;;;7.40;95.90;;;;;;5063205;28;20059;-74
2020/12/12 01:34:39;;;;;;;34.22;17.55;;;7.40;95.90;;;;;;5063484;28;20040;-74
2020/12/12 01:37:05;;;;;;;37.22;17.88;;;7.40;95.80;;;;;;5070280;28;20040;-73
2020/12/12 01:39:30;;;;;;;34.17;17.45;;;7.40;95.80;;;;;;5065641;28;20041;-75
2020/12/12 01:41:56;;;;;;;29.33;15.98;;;7.40;95.80;;;;;;5050175;28;20562;-73
2020/12/12 01:44:22;;;;;;;32.45;16.92;;;7.40;95.80;;;;;;5057541;28;20690;-74
2020/12/12 01:46:48;;;;;;;34.13;17.33;;;7.50;95.90;;;;;;5066266;28;20032;-76
2020/12/12 01:49:14;;;;;;;39.58;18.92;;;7.50;95.90;;;;;;5061315;28;20040;-73
2020/12/12 01:51:43;;;;;;;40.88;18.38;;;7.50;95.90;;;;;;5067918;28;20123;-73
2020/12/12 01:54:09;;;;;;;36.63;18.15;;;7.50;95.80;;;;;;5063054;28;20534;-74
2020/12/12 01:56:35;;;;;;;35.45;17.75;;;7.50;95.80;;;;;;5061268;28;20062;-73
2020/12/12 01:59:01;;;;;;;37.67;18.60;;;7.50;95.80;;;;;;5069681;28;20032;-74
2020/12/12 02:01:28;;;;;;;34.67;17.60;;;7.50;95.80;;;;;;5058872;28;20059;-74
2020/12/12 02:03:55;;;;;;;38.05;18.60;;;7.50;95.80;;;;;;5051421;28;20503;-74
2020/12/12 02:06:21;;;;;;;42.63;20.00;;;7.50;95.80;;;;;;5063208;28;20430;-74
2020/12/12 02:08:53;;;;;;;33.78;17.23;;;7.60;95.80;;;;;;5060021;28;20159;-77
2020/12/12 02:11:20;;;;;;;38.97;18.20;;;7.50;95.80;;;;;;5061688;28;20029;-74
2020/12/12 02:13:47;;;;;;;42.88;19.70;;;7.60;95.80;;;;;;5050301;28;20396;-74
2020/12/12 02:16:17;;;;;;;44.40;19.58;;;7.60;95.80;;;;;;5056561;28;20513;-74
2020/12/12 02:18:43;;;;;;;31.98;17.08;;;7.60;95.80;;;;;;5062939;28;20494;-74
2020/12/12 02:21:09;;;;;;;29.13;15.40;;;7.60;95.70;;;;;;5066174;28;20036;-74
2020/12/12 02:23:35;;;;;;;36.78;17.73;;;7.60;95.70;;;;;;5068734;28;20173;-73
2020/12/12 02:26:01;;;;;;;32.60;17.35;;;7.60;95.70;;;;;;5065387;28;20097;-74
2020/12/12 02:28:39;;;;;;;39.20;17.02;;;7.60;95.70;;;;;;5059225;28;20498;-74
2020/12/12 02:31:04;;;;;;;45.67;20.13;;;7.60;95.70;;;;;;5065275;28;20032;-76
2020/12/12 02:33:30;;;;;;;41.85;18.33;;;7.60;95.70;;;;;;5058188;28;20048;-74
2020/12/12 02:35:57;;;;;;;37.28;18.23;;;7.60;95.70;;;;;;5048544;28;20037;-74
2020/12/12 02:38:23;;;;;;;32.55;16.85;;;7.60;95.70;;;;;;5062643;28;20031;-74
2020/12/12 02:40:49;;;;;;;39.08;19.13;;;7.60;95.60;;;;;;5063363;28;20040;-74
2020/12/12 02:43:16;;;;;;;35.67;17.00;;;7.60;95.60;;;;;;5067837;28;20044;-74
2020/12/12 02:45:44;;;;;;;33.58;17.77;;;7.60;95.60;;;;;;5065098;28;20123;-74
2020/12/12 02:48:10;;;;;;;37.90;17.08;;;7.60;95.60;;;;;;5062951;28;20041;-74
2020/12/12 02:50:36;;;;;;;43.92;19.60;;;7.60;95.60;;;;;;5054392;28;20035;-74
2020/12/12 02:53:02;;;;;;;36.67;16.95;;;7.60;95.60;;;;;;5064619;28;20051;-74
2020/12/12 02:55:27;;;;;;;37.75;17.17;;;7.60;95.60;;;;;;5056317;28;20116;-73
2020/12/12 02:57:53;;;;;;;35.28;16.92;;;7.60;95.60;;;;;;5063755;28;20383;-74
2020/12/12 03:00:22;;;;;;;35.80;17.52;;;7.60;95.60;;;;;;5059558;28;20024;-73
2020/12/12 03:02:48;;;;;;;37.60;17.50;;;7.70;95.60;;;;;;5067802;28;20414;-73
2020/12/12 03:05:13;;;;;;;35.88;17.45;;;7.60;95.60;;;;;;5067612;28;20028;-73
2020/12/12 03:07:39;;;;;;;38.45;17.27;;;7.60;95.60;;;;;;5065881;28;20040;-75
2020/12/12 03:10:07;;;;;;;28.60;16.42;;;7.70;95.50;;;;;;5050997;28;20504;-74
2020/12/12 03:12:37;;;;;;;31.40;16.20;;;7.70;95.60;;;;;;5053098;28;20052;-74
2020/12/12 03:15:12;;;;;;;31.73;17.92;;;7.70;95.50;;;;;;5062675;28;20035;-76
2020/12/12 03:17:38;;;;;;;35.55;17.17;;;7.70;95.60;;;;;;5069226;28;20101;-74
2020/12/12 03:20:06;;;;;;;30.30;15.85;;;7.70;95.60;;;;;;5060915;28;20041;-74
2020/12/12 03:22:32;;;;;;;38.45;17.52;;;7.70;95.60;;;;;;5051575;28;20036;-73
2020/12/12 03:24:58;;;;;;;40.00;18.92;;;7.70;95.60;;;;;;5064645;28;20027;-74
2020/12/12 03:27:23;;;;;;;41.05;17.80;;;7.80;95.60;;;;;;5057687;28;20379;-73
2020/12/12 03:29:49;;;;;;;43.83;20.40;;;7.80;95.60;;;;;;5062947;28;20052;-74
2020/12/12 03:32:15;;;;;;;35.42;17.17;;;7.80;95.60;;;;;;5065770;28;20487;-74
2020/12/12 03:34:44;;;;;;;43.30;17.25;;;7.80;95.60;;;;;;5062674;28;20097;-73
2020/12/12 03:37:11;;;;;;;36.33;16.70;;;7.80;95.50;;;;;;5067085;28;20021;-73
2020/12/12 03:39:36;;;;;;;34.75;16.35;;;7.80;95.50;;;;;;5065289;28;20020;-74
2020/12/12 03:42:02;;;;;;;32.90;17.05;;;7.80;95.50;;;;;;5065996;28;20031;-77
2020/12/12 03:44:28;;;;;;;36.85;17.42;;;7.80;95.50;;;;;;5064864;28;20028;-74
2020/12/12 03:46:53;;;;;;;32.00;16.25;;;7.90;95.50;;;;;;5077535;28;20443;-73
2020/12/12 03:49:19;;;;;;;31.30;15.35;;;7.80;95.50;;;;;;5055514;28;20066;-73
2020/12/12 03:51:44;;;;;;;31.33;16.02;;;7.80;95.50;;;;;;5060238;28;20128;-73
2020/12/12 03:54:10;;;;;;;32.95;16.10;;;7.80;95.50;;;;;;5055351;28;20124;-74
2020/12/12 03:56:36;;;;;;;31.90;15.43;;;7.80;95.50;;;;;;5059081;28;20035;-74
2020/12/12 03:59:01;;;;;;;35.13;16.27;;;7.80;95.50;;;;;;5061332;28;20026;-74
2020/12/12 04:01:27;;;;;;;44.70;18.40;;;7.80;95.50;;;;;;5062723;28;20035;-74
2020/12/12 04:03:53;;;;;;;34.00;15.85;;;7.80;95.50;;;;;;5057781;28;20028;-73
2020/12/12 04:06:21;;;;;;;32.22;16.42;;;7.90;95.50;;;;;;5056075;28;20028;-77
2020/12/12 04:08:47;;;;;;;41.25;16.05;;;7.80;95.50;;;;;;5060528;28;20101;-73
2020/12/12 04:11:13;;;;;;;41.72;18.58;;;7.90;95.50;;;;;;5055938;28;20039;-74
2020/12/12 04:13:39;;;;;;;34.17;16.13;;;7.90;95.50;;;;;;5050408;28;20032;-73
2020/12/12 04:16:04;;;;;;;36.00;15.57;;;7.80;95.50;;;;;;5054517;28;20122;-74
2020/12/12 04:18:30;;;;;;;29.75;14.15;;;7.80;95.50;;;;;;5060970;28;20036;-74
2020/12/12 04:20:56;;;;;;;29.05;14.75;;;7.90;95.50;;;;;;5058473;28;20021;-73
2020/12/12 04:23:21;;;;;;;35.75;16.48;;;7.90;95.50;;;;;;5060341;28;21566;-74
2020/12/12 04:25:47;;;;;;;33.25;15.10;;;7.80;95.40;;;;;;5066066;28;20029;-73
2020/12/12 04:28:13;;;;;;;33.67;14.57;;;7.90;95.50;;;;;;5060853;28;20029;-73
2020/12/12 04:30:38;;;;;;;31.45;15.32;;;7.90;95.40;;;;;;5062231;28;20123;-73
2020/12/12 04:33:04;;;;;;;32.25;14.23;;;7.90;95.40;;;;;;5065009;28;20064;-74
2020/12/12 04:35:29;;;;;;;33.95;16.08;;;7.80;95.40;;;;;;5060373;28;20055;-74
2020/12/12 04:37:55;;;;;;;32.30;14.82;;;7.80;95.40;;;;;;5054232;28;20033;-73
2020/12/12 04:40:22;;;;;;;40.60;15.57;;;7.80;95.40;;;;;;5060868;28;20559;-74
2020/12/12 04:42:48;;;;;;;34.67;15.65;;;7.90;95.40;;;;;;5062731;28;20032;-73
2020/12/12 04:45:20;;;;;;;31.13;15.57;;;7.80;95.40;;;;;;5065886;28;20407;-74
2020/12/12 04:47:48;;;;;;;30.70;14.63;;;7.80;95.30;;;;;;5061773;28;20112;-74
2020/12/12 04:50:14;;;;;;;31.40;14.93;;;7.80;95.30;;;;;;5060176;28;20495;-73
2020/12/12 04:52:43;;;;;;;44.15;16.75;;;7.80;95.40;;;;;;5063575;28;20033;-73
2020/12/12 04:55:10;;;;;;;30.23;15.75;;;7.80;95.30;;;;;;5060038;28;20032;-73
2020/12/12 04:57:38;;;;;;;31.02;15.43;;;7.80;95.30;;;;;;5059058;28;20037;-73
2020/12/12 05:00:11;;;;;;;33.70;16.95;;;7.80;95.30;;;;;;5062633;28;20021;-73
2020/12/12 05:02:37;;;;;;;35.03;16.00;;;7.80;95.30;;;;;;5064134;28;20455;-75
2020/12/12 05:05:07;;;;;;;30.65;15.82;;;7.80;95.20;;;;;;5061026;28;20120;-74
2020/12/12 05:07:33;;;;;;;39.38;17.33;;;7.80;95.20;;;;;;5066380;28;20043;-75
2020/12/12 05:10:00;;;;;;;43.05;18.25;;;7.70;95.20;;;;;;5069349;28;20043;-73
2020/12/12 05:12:26;;;;;;;28.88;16.52;;;7.70;95.20;;;;;;5067158;28;20036;-73
2020/12/12 05:14:52;;;;;;;39.70;19.48;;;7.70;95.20;;;;;;5058931;28;20094;-73
2020/12/12 05:17:20;;;;;;;34.72;18.05;;;7.70;95.20;;;;;;5069536;28;20035;-74
2020/12/12 05:19:50;;;;;;;43.80;21.27;;;7.70;95.20;;;;;;5070989;28;20082;-73
2020/12/12 05:22:16;;;;;;;40.47;19.42;;;7.60;95.20;;;;;;5066453;28;20060;-75
2020/12/12 05:24:42;;;;;;;42.13;20.65;;;7.60;95.20;;;;;;5061342;28;20033;-73
2020/12/12 05:27:09;;;;;;;44.90;21.10;;;7.60;95.20;;;;;;5054381;28;20608;-73
2020/12/12 05:29:34;;;;;;;48.72;21.65;;;7.60;95.20;;;;;;5069965;28;20112;-73
2020/12/12 05:32:01;;;;;;;47.47;22.38;;;7.60;95.20;;;;;;5060411;28;20111;-73
2020/12/12 05:34:27;;;;;;;39.70;20.48;;;7.60;95.20;;;;;;5055440;28;20479;-73
2020/12/12 05:36:54;;;;;;;46.80;23.30;;;7.60;95.20;;;;;;5066479;28;20036;-73
2020/12/12 05:39:20;;;;;;;50.35;22.35;;;7.60;95.20;;;;;;5071631;28;20021;-73
2020/12/12 05:41:47;;;;;;;40.17;21.00;;;7.60;95.10;;;;;;5069496;28;20031;-73
2020/12/12 05:44:15;;;;;;;39.88;21.17;;;7.60;95.10;;;;;;5069014;28;20024;-73
2020/12/12 05:46:42;;;;;;;39.92;21.63;;;7.60;95.10;;;;;;5070695;28;20029;-77
2020/12/12 05:49:08;;;;;;;41.58;21.92;;;7.60;95.10;;;;;;5063009;28;20029;-76
2020/12/12 05:51:33;;;;;;;43.28;21.98;;;7.60;95.10;;;;;;5056151;28;20163;-73
2020/12/12 05:54:00;;;;;;;40.42;20.40;;;7.50;95.00;;;;;;5057347;28;20069;-73
2020/12/12 05:56:26;;;;;;;42.63;22.20;;;7.50;95.00;;;;;;5062438;28;20024;-73
2020/12/12 05:58:54;;;;;;;51.53;23.67;;;7.50;95.00;;;;;;5064560;28;20119;-73
2020/12/12 06:01:21;;;;;;;43.85;21.45;;;7.50;95.00;;;;;;5069244;28;20029;-73
2020/12/12 06:03:50;;;;;;;42.53;22.30;;;7.50;95.00;;;;;;5064991;28;20111;-73
2020/12/12 06:06:21;;;;;;;42.25;22.02;;;7.50;95.00;;;;;;5057433;28;20384;-73
2020/12/12 06:09:05;;;;;;;40.55;21.85;;;7.50;95.00;;;;;;5060106;28;20024;-73
2020/12/12 06:11:32;;;;;;;36.72;22.20;;;7.50;95.00;;;;;;5057106;28;20029;-73
2020/12/12 06:14:00;;;;;;;40.15;21.13;;;7.50;95.00;;;;;;5059112;28;20043;-73
2020/12/12 06:16:28;;;;;;;45.75;23.15;;;7.40;95.00;;;;;;5061165;28;20059;-75
2020/12/12 06:19:08;;;;;;;45.33;23.38;;;7.40;95.00;;;;;;5063797;28;20386;-74
2020/12/12 06:21:42;;;;;;;39.35;22.67;;;7.50;95.00;;;;;;5068487;28;20097;-73
2020/12/12 06:24:18;;;;;;;52.45;24.08;;;7.50;95.00;;;;;;5064261;28;20519;-74
2020/12/12 06:26:59;;;;;;;44.67;23.83;;;7.40;95.00;;;;;;5053310;28;20036;-78
2020/12/12 06:29:28;;;;;;;36.92;22.27;;;7.40;95.00;;;;;;5062952;28;20032;-74
2020/12/12 06:31:54;;;;;;;42.28;23.88;;;7.40;95.00;;;;;;5061455;28;20033;-73
2020/12/12 06:34:50;;;;;;;36.78;22.00;;;7.40;94.90;;;;;;5065866;28;20043;-73
2020/12/12 06:37:37;;;;;;;45.72;24.38;;;7.40;95.00;;;;;;5062489;28;20036;-73
2020/12/12 06:40:09;;;;;;;42.00;22.92;;;7.40;95.00;;;;;;5057974;28;20089;-74
2020/12/12 06:42:36;;;;;;;43.30;24.45;;;7.40;95.00;;;;;;5062917;28;20021;-73
2020/12/12 06:45:22;;;;;;;48.17;25.05;;;7.40;95.00;;;;;;5054918;28;20377;-76
2020/12/12 06:47:51;;;;;;;42.63;22.60;;;7.40;95.00;;;;;;5035940;28;20514;-73
2020/12/12 06:50:22;;;;;;;41.92;23.33;;;7.40;95.00;;;;;;5045630;28;20041;-74
2020/12/12 06:52:52;;;;;;;40.22;23.83;;;7.40;95.00;;;;;;5041439;28;20063;-73
2020/12/12 06:55:22;;;;;;;49.85;26.70;;;7.40;95.00;;;;;;5047227;28;20037;-73
2020/12/12 06:57:49;;;;;;;44.20;25.13;;;7.40;95.00;;;;;;5046223;28;20071;-73
2020/12/12 07:00:25;;;;;;;45.35;25.88;;;7.40;95.00;;;;;;5040152;28;20037;-73
2020/12/12 07:02:55;;;;;;;48.00;27.30;;;7.50;95.00;;;;;;5043355;28;20033;-74
2020/12/12 07:05:23;;;;;;;45.80;26.90;;;7.40;95.00;;;;;;5044998;28;20029;-73
2020/12/12 07:07:48;;;;;;;52.92;25.95;;;7.50;95.00;;;;;;5043591;28;20040;-74
2020/12/12 07:10:14;;;;;;;46.97;26.40;;;7.50;95.00;;;;;;5045679;28;20119;-73
2020/12/12 07:12:40;;;;;;;50.10;28.02;;;7.40;95.00;;;;;;5046710;28;20044;-74
2020/12/12 07:15:06;;;;;;;50.28;27.52;;;7.50;95.00;;;;;;5044003;28;20087;-73
2020/12/12 07:17:33;;;;;;;49.28;28.05;;;7.50;94.90;;;;;;5045853;28;20033;-73
2020/12/12 07:19:59;;;;;;;54.13;28.58;;;7.50;94.90;;;;;;5045626;28;20025;-73
2020/12/12 07:22:28;;;;;;;49.10;28.50;;;7.50;94.90;;;;;;5042651;28;20077;-73
2020/12/12 07:24:54;;;;;;;49.05;26.77;;;7.50;94.90;;;;;;5047032;28;20511;-73
2020/12/12 07:27:20;;;;;;;48.53;26.85;;;7.50;94.90;;;;;;5045867;28;20033;-73
2020/12/12 07:29:45;;;;;;;48.78;25.73;;;7.50;94.90;;;;;;5041644;28;20040;-77
2020/12/12 07:32:11;;;;;;;46.17;25.95;;;7.50;94.90;;;;;;5043757;28;20052;-76
2020/12/12 07:34:36;;;;;;;49.70;27.45;;;7.50;94.90;;;;;;5042494;28;20438;-75
2020/12/12 07:37:07;;;;;;;46.13;27.15;;;7.50;94.90;;;;;;5043652;28;20033;-74
2020/12/12 07:39:38;;;;;;;58.45;28.83;;;7.50;94.90;;;;;;5046840;28;20029;-74
2020/12/12 07:42:07;;;;;;;45.72;27.52;;;7.50;94.90;;;;;;5040214;28;20083;-74
2020/12/12 07:44:33;;;;;;;50.30;27.83;;;7.50;94.90;;;;;;5045356;28;20163;-75
2020/12/12 07:47:04;;;;;;;52.85;27.27;;;7.60;94.90;;;;;;5046823;28;20068;-75
2020/12/12 07:49:31;;;;;;;46.50;25.85;;;7.60;94.90;;;;;;5044855;28;20032;-74
2020/12/12 07:52:01;;;;;;;48.30;27.15;;;7.60;94.90;;;;;;5043924;28;20029;-75
2020/12/12 07:54:36;;;;;;;46.78;25.95;;;7.60;94.90;;;;;;5046159;28;20057;-75
2020/12/12 07:57:03;;;;;;;49.92;28.35;;;7.60;94.90;;;;;;5041970;28;20032;-73
2020/12/12 07:59:30;;;;;;;60.58;32.33;;;7.60;94.90;;;;;;5041654;28;20032;-73
2020/12/12 08:02:00;;;;;;;57.75;31.50;;;7.60;94.90;;;;;;5043190;28;20722;-74
2020/12/12 08:04:26;;;;;;;64.00;31.83;;;7.60;94.90;;;;;;5043676;28;20028;-73
2020/12/12 08:06:52;;;;;;;54.42;30.88;;;7.60;94.90;;;;;;5043243;28;20384;-74
2020/12/12 08:09:22;;;;;;;54.22;31.30;;;7.70;94.90;;;;;;5044676;28;20380;-74
2020/12/12 08:11:59;;;;;;;54.28;29.40;;;7.60;94.90;;;;;;5045186;28;20472;-73
2020/12/12 08:14:27;;;;;;;56.60;31.33;;;7.70;94.90;;;;;;5046913;28;20525;-73
2020/12/12 08:16:58;;;;;;;48.67;29.35;;;7.70;94.90;;;;;;5040491;28;20029;-74
2020/12/12 08:19:24;;;;;;;50.63;29.13;;;7.80;94.90;;;;;;5042698;28;20025;-74
2020/12/12 08:22:17;;;;;;;62.80;31.98;;;7.80;94.90;;;;;;5040443;28;20021;-76
2020/12/12 08:24:44;;;;;;;54.45;29.23;;;7.80;94.90;;;;;;5043321;28;20029;-74
2020/12/12 08:27:15;;;;;;;58.03;30.10;;;7.80;94.90;;;;;;5043168;28;20450;-74
2020/12/12 08:29:50;;;;;;;53.00;30.27;;;7.90;94.80;;;;;;5043619;28;20033;-75
2020/12/12 08:32:39;;;;;;;52.40;29.27;;;7.90;94.80;;;;;;5041872;28;20041;-74
2020/12/12 08:35:25;;;;;;;59.33;31.67;;;7.90;94.80;;;;;;5043934;28;21025;-75
2020/12/12 08:37:51;;;;;;;55.65;31.08;;;7.90;94.70;;;;;;5047265;28;20037;-76
2020/12/12 08:40:17;;;;;;;55.60;31.70;;;8.00;94.80;;;;;;5046523;28;20021;-75
2020/12/12 08:42:55;;;;;;;52.47;30.77;;;8.00;94.80;;;;;;5047149;28;20029;-75
2020/12/12 08:45:21;;;;;;;55.28;31.17;;;8.00;94.70;;;;;;5046438;28;20041;-75
2020/12/12 08:47:46;;;;;;;57.25;30.52;;;8.10;94.70;;;;;;5046354;28;20033;-75
2020/12/12 08:50:12;;;;;;;59.95;32.28;;;8.10;94.70;;;;;;5044382;28;20033;-75
2020/12/12 08:52:40;;;;;;;59.67;32.72;;;8.10;94.60;;;;;;5051010;28;20032;-75
2020/12/12 08:55:06;;;;;;;59.80;31.13;;;8.10;94.60;;;;;;5043795;28;20055;-77
2020/12/12 08:57:31;;;;;;;60.78;32.17;;;8.10;94.60;;;;;;5046395;28;20029;-75
2020/12/12 09:00:02;;;;;;;58.97;33.33;;;8.20;94.50;;;;;;5043926;28;20040;-76
2020/12/12 09:02:28;;;;;;;48.80;29.80;;;8.20;94.60;;;;;;5060215;28;20098;-75
2020/12/12 09:05:10;;;;;;;60.47;34.50;;;8.30;94.60;;;;;;5064453;28;20116;-74
2020/12/12 09:07:37;;;;;;;62.90;37.05;;;8.30;94.60;;;;;;5068333;28;20446;-75
2020/12/12 09:10:12;;;;;;;57.65;34.08;;;8.40;94.50;;;;;;5042009;28;20120;-74
2020/12/12 09:12:49;;;;;;;53.33;33.05;;;8.50;94.50;;;;;;5046749;28;20091;-75
2020/12/12 09:15:15;;;;;;;64.75;35.58;;;8.50;94.40;;;;;;5047363;28;20033;-75
2020/12/12 09:17:41;;;;;;;55.42;34.58;;;8.50;94.40;;;;;;5048051;28;20025;-78
2020/12/12 09:20:08;;;;;;;59.72;34.80;;;8.60;94.20;;;;;;5036429;28;20048;-74
2020/12/12 09:22:37;;;;;;;59.92;40.92;;;8.60;94.20;;;;;;5041579;28;20060;-75
2020/12/12 09:25:04;;;;;;;67.55;45.20;;;8.60;94.20;;;;;;5051659;28;20037;-74
2020/12/12 09:27:29;;;;;;;56.42;37.88;;;8.60;94.20;;;;;;5053457;28;20094;-77
2020/12/12 09:29:55;;;;;;;66.45;45.65;;;8.60;94.20;;;;;;5069136;28;20581;-73
2020/12/12 09:32:21;;;;;;;59.35;36.08;;;8.60;94.10;;;;;;5062613;28;20036;-73
2020/12/12 09:34:46;;;;;;;53.08;35.05;;;8.60;94.10;;;;;;5066492;28;20471;-74
2020/12/12 09:37:12;;;;;;;52.72;34.38;;;8.80;94.00;;;;;;5063476;28;20050;-73
2020/12/12 09:39:38;;;;;;;52.53;31.67;;;8.70;93.90;;;;;;5062793;28;20028;-76
2020/12/12 09:42:03;;;;;;;48.15;30.30;;;8.80;93.80;;;;;;5050337;28;20536;-73
2020/12/12 09:44:29;;;;;;;58.03;33.30;;;8.80;93.80;;;;;;5065613;28;20032;-74
2020/12/12 09:46:55;;;;;;;51.22;30.45;;;8.80;93.80;;;;;;5062992;28;20097;-74
2020/12/12 09:49:21;;;;;;;48.55;28.50;;;8.80;93.70;;;;;;5052980;28;20028;-74
2020/12/12 09:51:47;;;;;;;45.97;29.42;;;8.80;93.60;;;;;;5055775;28;20025;-75
2020/12/12 09:54:14;;;;;;;50.33;29.90;;;8.90;93.60;;;;;;5065267;28;20037;-76
2020/12/12 09:56:40;;;;;;;48.42;28.77;;;8.90;93.60;;;;;;5061995;28;20047;-74
2020/12/12 09:59:05;;;;;;;51.17;30.58;;;8.90;93.50;;;;;;5062388;28;20040;-74
2020/12/12 10:01:31;;;;;;;49.85;27.95;;;8.90;93.40;;;;;;5060231;28;20056;-74
2020/12/12 10:03:57;;;;;;;48.28;27.45;;;9.00;93.50;;;;;;5065439;28;20035;-74
2020/12/12 10:06:23;;;;;;;48.67;28.75;;;9.10;93.50;;;;;;5064002;28;20440;-74
2020/12/12 10:08:48;;;;;;;45.45;28.45;;;9.20;93.50;;;;;;5068062;28;20024;-75
2020/12/12 10:11:14;;;;;;;45.85;28.38;;;9.30;93.40;;;;;;5065752;28;20040;-78
2020/12/12 10:13:40;;;;;;;41.50;26.73;;;9.40;93.40;;;;;;5061032;28;20040;-76
2020/12/12 10:16:05;;;;;;;40.40;26.33;;;9.50;93.10;;;;;;5065562;28;20090;-75
2020/12/12 10:18:31;;;;;;;41.70;27.80;;;9.50;92.80;;;;;;5066048;28;20037;-75
2020/12/12 10:20:57;;;;;;;45.92;28.45;;;9.60;92.70;;;;;;5067681;28;20029;-82
2020/12/12 10:23:23;;;;;;;41.67;26.13;;;9.60;92.50;;;;;;5065522;28;20115;-75
2020/12/12 10:25:48;;;;;;;37.92;25.25;;;9.60;92.40;;;;;;5063959;28;20097;-76
2020/12/12 10:28:14;;;;;;;45.83;28.10;;;9.50;92.30;;;;;;5067164;28;20037;-76
2020/12/12 10:30:39;;;;;;;43.63;26.95;;;9.50;92.10;;;;;;5055400;28;20032;-76
2020/12/12 10:33:05;;;;;;;46.35;29.10;;;9.50;92.10;;;;;;5062544;28;20441;-76
2020/12/12 10:35:31;;;;;;;41.22;26.85;;;9.50;92.30;;;;;;5066086;28;20491;-77
2020/12/12 10:37:58;;;;;;;49.05;28.20;;;9.60;92.20;;;;;;5061768;28;20037;-77
2020/12/12 10:40:31;;;;;;;47.08;28.08;;;9.60;92.00;;;;;;5058839;28;20029;-77
2020/12/12 10:42:56;;;;;;;42.65;27.70;;;9.70;92.10;;;;;;5058063;28;20094;-76
2020/12/12 10:45:22;;;;;;;41.58;27.05;;;9.70;92.10;;;;;;5056174;28;20449;-79
2020/12/12 10:47:48;;;;;;;47.28;28.48;;;9.80;91.90;;;;;;5050041;28;20040;-78
2020/12/12 10:50:13;;;;;;;52.15;31.27;;;9.80;91.80;;;;;;5041381;28;20450;-75
2020/12/12 10:52:40;;;;;;;42.03;28.92;;;9.80;91.60;;;;;;5038793;28;20506;-76
2020/12/12 10:55:06;;;;;;;50.53;28.77;;;9.80;91.50;;;;;;5043846;28;20047;-74
2020/12/12 10:57:32;;;;;;;48.75;29.02;;;9.80;91.40;;;;;;5038595;28;21415;-76
2020/12/12 10:59:59;;;;;;;52.63;29.70;;;9.90;91.30;;;;;;5037640;28;20461;-78
2020/12/12 11:02:28;;;;;;;42.17;29.05;;;9.90;91.10;;;;;;5027336;28;20241;-74
2020/12/12 11:04:54;;;;;;;46.15;29.90;;;9.90;91.10;;;;;;5009116;28;20029;-77
2020/12/12 11:07:19;;;;;;;44.08;29.73;;;9.90;91.10;;;;;;5011172;28;20033;-75
2020/12/12 11:09:46;;;;;;;45.60;30.88;;;9.90;91.20;;;;;;5028834;28;20381;-75
2020/12/12 11:12:13;;;;;;;46.95;31.77;;;9.90;91.10;;;;;;5040288;28;20157;-74
2020/12/12 11:14:39;;;;;;;47.63;32.38;;;9.90;91.00;;;;;;5030655;28;20048;-73
2020/12/12 11:17:05;;;;;;;48.72;30.25;;;9.90;91.10;;;;;;5032610;28;20036;-75
2020/12/12 11:19:30;;;;;;;50.10;31.33;;;9.90;91.00;;;;;;5036407;28;20074;-71
2020/12/12 11:21:56;;;;;;;47.30;31.20;;;9.90;90.90;;;;;;5041164;28;20048;-75
2020/12/12 11:24:23;;;;;;;48.80;32.22;;;9.90;90.90;;;;;;5016293;28;20040;-75
2020/12/12 11:26:49;;;;;;;47.17;31.20;;;9.80;91.00;;;;;;5037015;28;21012;-72
2020/12/12 11:29:15;;;;;;;53.00;32.75;;;9.70;91.30;;;;;;5017232;28;20037;-73
2020/12/12 11:31:44;;;;;;;52.97;31.65;;;9.70;91.30;;;;;;5012613;28;20037;-74
2020/12/12 11:37:56;;;;;;;52.50;33.25;;;9.70;91.60;;;;;;5033237;28;20146;-74
2020/12/12 11:45:43;;;;;;;58.83;33.65;;;9.70;91.70;;;;;;5027787;28;20179;-72
2020/12/12 11:48:08;;;;;;;53.90;34.35;;;9.70;91.60;;;;;;5030947;28;20037;-74
2020/12/12 11:50:34;;;;;;;53.38;33.45;;;9.70;91.60;;;;;;5031802;28;20441;-73
2020/12/12 11:52:59;;;;;;;56.28;33.67;;;9.70;91.70;;;;;;5032495;28;20048;-75
2020/12/12 11:55:26;;;;;;;53.78;34.67;;;9.70;91.80;;;;;;5037059;28;20463;-75
2020/12/12 11:57:51;;;;;;;52.75;33.25;;;9.70;91.80;;;;;;5040721;28;20513;-71
2020/12/12 12:00:17;;;;;;;56.97;34.25;;;9.70;91.80;;;;;;5037668;28;20043;-72
2020/12/12 12:02:43;;;;;;;56.58;34.28;;;9.70;91.80;;;;;;5041224;28;20063;-74
2020/12/12 12:05:09;;;;;;;57.42;35.30;;;9.80;91.80;;;;;;5034679;28;20147;-74
2020/12/12 12:07:44;;;;;;;59.38;32.85;;;9.70;91.70;;;;;;5031422;28;20464;-74
2020/12/12 12:12:44;;;;;;;48.03;31.70;;;9.70;91.80;;;;;;5044403;28;20340;-73
2020/12/12 12:15:10;;;;;;;56.53;33.42;;;9.70;91.80;;;;;;5046914;28;20347;-75
2020/12/12 12:17:36;;;;;;;54.05;33.60;;;9.70;91.90;;;;;;5048453;28;20124;-73
2020/12/12 12:20:02;;;;;;;53.80;33.53;;;9.70;91.80;;;;;;5041730;28;20119;-72
2020/12/12 12:22:28;;;;;;;55.03;35.65;;;9.70;91.80;;;;;;5031015;28;20045;-73
2020/12/12 12:24:55;;;;;;;59.63;36.17;;;9.70;91.80;;;;;;5029272;28;20089;-73
2020/12/12 12:27:21;;;;;;;56.25;33.78;;;9.70;91.80;;;;;;5037942;28;20044;-72
2020/12/12 12:29:47;;;;;;;62.55;37.22;;;9.70;91.90;;;;;;5029287;28;20063;-73
2020/12/12 12:32:12;;;;;;;64.07;36.00;;;9.70;92.00;;;;;;5040701;28;20558;-73
2020/12/12 12:34:38;;;;;;;63.00;38.72;;;9.60;92.20;;;;;;5028114;28;20047;-73
2020/12/12 12:37:04;;;;;;;62.50;37.05;;;9.60;92.20;;;;;;5037337;28;20574;-72
2020/12/12 12:39:30;;;;;;;67.30;38.40;;;9.60;92.40;;;;;;5044812;28;20079;-74
2020/12/12 12:41:55;;;;;;;67.03;38.88;;;9.60;92.20;;;;;;5048129;28;20084;-73
2020/12/12 12:44:21;;;;;;;71.82;37.40;;;9.60;92.30;;;;;;5040752;28;20025;-75
2020/12/12 12:46:49;;;;;;;67.20;37.45;;;9.60;92.40;;;;;;5043830;28;20036;-73
2020/12/12 12:49:15;;;;;;;76.82;40.03;;;9.60;92.50;;;;;;5039122;28;20534;-74